Time;durP1;ratioP1;P1;durP2;ratioP2;P2;SDS_P1;SDS_P2;PMS_P1;PMS_P2;Temp;Humidity;BMP_temperature;BMP_pressure;BME280_temperature;BME280_humidity;BME280_pressure;Samples;Min_cycle;Max_cycle;Signal;HPM_P1;HPM_P2
2021/12/27 00:01:40;;;;;;;15.67;10.43;;;;;;;5.02;57.80;99225.78;10303107;28;20225;-80
2021/12/27 00:06:43;;;;;;;13.37;10.07;;;;;;;4.93;58.86;99228.47;10328659;28;20222;-80
2021/12/27 00:11:45;;;;;;;14.17;10.77;;;;;;;4.94;58.69;99224.53;10313052;28;20272;-80
2021/12/27 00:16:47;;;;;;;14.50;10.87;;;;;;;5.12;57.68;99213.59;10360482;28;20202;-82
2021/12/27 00:21:49;;;;;;;12.67;10.00;;;;;;;4.68;59.29;99215.09;10317260;28;20234;-81
2021/12/27 00:26:52;;;;;;;12.50;9.80;;;;;;;5.24;57.65;99197.97;10320999;28;20626;-81
2021/12/27 00:31:54;;;;;;;13.10;10.27;;;;;;;5.42;57.09;99196.97;10303931;28;20218;-83
2021/12/27 00:36:57;;;;;;;13.47;10.37;;;;;;;4.89;59.13;99190.47;10264895;28;20198;-81
2021/12/27 00:42:00;;;;;;;8.83;7.10;;;;;;;5.52;58.11;99181.16;10335233;28;20198;-82
2021/12/27 00:47:02;;;;;;;9.00;6.80;;;;;;;5.64;57.69;99178.63;10321519;28;20218;-81
2021/12/27 00:52:05;;;;;;;12.77;8.90;;;;;;;5.23;58.54;99182.41;10296161;28;20190;-80
2021/12/27 00:57:07;;;;;;;7.20;6.20;;;;;;;5.78;57.59;99182.19;10312313;28;20203;-84
2021/12/27 01:02:09;;;;;;;4.43;3.80;;;;;;;5.64;59.55;99179.44;10333101;28;20249;-81
2021/12/27 01:07:12;;;;;;;3.57;3.03;;;;;;;5.70;60.78;99174.56;10328025;28;20268;-81
2021/12/27 01:17:25;;;;;;;3.20;2.90;;;;;;;5.90;58.99;99162.91;10338356;28;20506;-82
2021/12/27 01:22:27;;;;;;;3.03;2.60;;;;;;;5.97;59.29;99174.41;10343660;28;20225;-82
2021/12/27 01:27:30;;;;;;;3.50;3.20;;;;;;;6.19;58.42;99181.94;10358041;28;20226;-81
2021/12/27 01:32:37;;;;;;;4.23;3.10;;;;;;;6.39;58.52;99180.53;10359564;28;20190;-82
2021/12/27 01:37:39;;;;;;;3.83;3.23;;;;;;;6.63;56.79;99180.09;10343962;28;20228;-82
2021/12/27 01:43:05;;;;;;;3.10;2.70;;;;;;;6.79;57.08;99173.75;10325348;28;20280;-81
2021/12/27 01:48:08;;;;;;;3.17;2.87;;;;;;;6.29;57.92;99183.59;10331179;28;20279;-81
2021/12/27 01:53:11;;;;;;;3.83;3.13;;;;;;;6.30;57.93;99182.47;10342387;28;20190;-81
2021/12/27 01:58:14;;;;;;;3.70;3.10;;;;;;;6.50;57.29;99179.91;10341762;28;20202;-81
2021/12/27 02:03:18;;;;;;;3.43;3.00;;;;;;;6.55;57.73;99169.75;10342044;28;20276;-81
2021/12/27 02:08:20;;;;;;;3.80;3.07;;;;;;;6.80;56.33;99163.41;10341919;28;20237;-81
2021/12/27 02:13:23;;;;;;;3.70;3.40;;;;;;;6.85;56.45;99161.25;10357141;28;20666;-81
2021/12/27 02:18:25;;;;;;;4.33;3.37;;;;;;;6.46;58.03;99159.38;10357748;28;20213;-81
2021/12/27 02:23:28;;;;;;;3.83;3.47;;;;;;;6.86;56.73;99162.09;10340409;28;20708;-80
2021/12/27 02:28:30;;;;;;;3.53;2.73;;;;;;;6.98;56.90;99156.72;10357280;28;20214;-82
2021/12/27 02:33:35;;;;;;;4.20;3.40;;;;;;;7.09;56.55;99144.06;10324551;28;20669;-80
2021/12/27 02:38:40;;;;;;;3.43;3.13;;;;;;;7.38;55.61;99140.63;10353583;28;20201;-83
2021/12/27 02:43:43;;;;;;;4.73;3.73;;;;;;;7.02;56.44;99132.53;10323956;28;20256;-81
2021/12/27 02:48:47;;;;;;;4.87;3.90;;;;;;;6.86;56.91;99129.41;10340395;28;20280;-82
2021/12/27 02:53:50;;;;;;;4.30;3.77;;;;;;;7.14;56.32;99129.09;10320506;28;20205;-81
2021/12/27 02:58:52;;;;;;;4.00;3.60;;;;;;;7.08;56.57;99131.25;10340381;28;20186;-81
2021/12/27 03:03:55;;;;;;;3.73;3.43;;;;;;;7.03;57.06;99122.19;10340775;28;20414;-81
2021/12/27 03:08:58;;;;;;;3.60;3.13;;;;;;;6.73;57.57;99122.00;10310412;28;20289;-81
2021/12/27 03:14:00;;;;;;;4.00;3.27;;;;;;;6.87;57.41;99117.09;10315182;28;20199;-82
2021/12/27 03:19:02;;;;;;;3.10;2.80;;;;;;;7.00;56.56;99111.69;10315536;28;20190;-81
2021/12/27 03:24:05;;;;;;;2.33;2.13;;;;;;;7.29;55.62;99113.84;10337457;28;20291;-81
2021/12/27 03:29:07;;;;;;;2.57;2.13;;;;;;;6.83;57.72;99104.13;10371896;28;20650;-83
2021/12/27 03:34:10;;;;;;;2.60;2.40;;;;;;;7.43;56.09;99108.91;10351754;28;20251;-81
2021/12/27 03:39:12;;;;;;;4.10;3.00;;;;;;;7.30;56.42;99110.72;10330396;28;20206;-81
2021/12/27 03:44:14;;;;;;;3.63;3.10;;;;;;;7.22;56.92;99105.97;10338375;28;20194;-81
2021/12/27 03:49:17;;;;;;;3.07;2.77;;;;;;;7.33;56.69;99104.47;10337576;28;20218;-80
2021/12/27 03:54:19;;;;;;;3.17;2.83;;;;;;;7.35;56.75;99107.78;10337581;28;20595;-80
2021/12/27 03:59:48;;;;;;;3.60;3.30;;;;;;;7.36;56.92;99109.41;10322071;28;20202;-80
2021/12/27 04:04:50;;;;;;;3.47;3.17;;;;;;;7.21;57.48;99101.53;10366465;28;20261;-80
2021/12/27 04:09:52;;;;;;;4.63;3.17;;;;;;;7.20;58.04;99099.91;10280690;28;20639;-81
2021/12/27 04:14:58;;;;;;;4.30;3.40;;;;;;;7.17;58.10;99084.59;10305586;28;20508;-80
2021/12/27 04:20:00;;;;;;;3.90;3.50;;;;;;;7.15;58.74;99083.28;10280681;28;20257;-81
2021/12/27 04:25:03;;;;;;;5.47;4.00;;;;;;;7.17;57.77;99092.16;10319202;28;20225;-80
2021/12/27 04:30:06;;;;;;;5.33;4.00;;;;;;;7.27;57.76;99091.81;10319523;28;20229;-81
2021/12/27 04:35:09;;;;;;;5.83;3.97;;;;;;;7.16;58.84;99093.31;10330933;28;20260;-81
2021/12/27 04:40:13;;;;;;;5.23;4.13;;;;;;;7.27;58.66;99102.16;10336605;28;20182;-81
2021/12/27 04:45:16;;;;;;;5.10;4.53;;;;;;;7.35;58.31;99085.41;10335184;28;20252;-84
2021/12/27 04:50:18;;;;;;;6.50;4.63;;;;;;;7.37;58.16;99080.28;10320147;28;20230;-80
2021/12/27 04:55:24;;;;;;;4.40;3.97;;;;;;;7.24;58.90;99084.13;10331099;28;20207;-80
2021/12/27 05:00:27;;;;;;;4.80;4.17;;;;;;;7.01;59.52;99069.47;10296369;28;20234;-81
2021/12/27 05:05:32;;;;;;;6.03;4.40;;;;;;;7.00;59.58;99073.41;10295987;28;20218;-81
2021/12/27 05:10:35;;;;;;;4.77;4.30;;;;;;;7.02;59.58;99059.13;10326790;28;20222;-80
2021/12/27 05:15:37;;;;;;;4.93;4.10;;;;;;;7.09;58.91;99048.28;10336194;28;20587;-80
2021/12/27 05:20:40;;;;;;;5.50;4.23;;;;;;;7.31;58.34;99039.72;10319647;28;20252;-81
2021/12/27 05:25:42;;;;;;;4.57;4.17;;;;;;;7.36;58.35;99045.16;10304057;28;20579;-80
2021/12/27 05:30:47;;;;;;;6.03;4.43;;;;;;;7.20;58.75;99050.44;10338953;28;20276;-80
2021/12/27 05:35:50;;;;;;;5.00;4.23;;;;;;;7.32;58.54;99049.75;10353207;28;20277;-81
2021/12/27 05:40:54;;;;;;;4.47;4.07;;;;;;;7.22;58.24;99048.13;10318020;28;20673;-80
2021/12/27 05:45:56;;;;;;;5.03;4.50;;;;;;;6.64;59.91;99050.59;10312281;28;20598;-82
2021/12/27 05:50:58;;;;;;;5.03;4.43;;;;;;;7.08;58.31;99043.84;10335834;28;20280;-80
2021/12/27 05:56:00;;;;;;;4.43;4.00;;;;;;;7.00;58.91;99037.09;10359179;28;20678;-80
2021/12/27 06:01:03;;;;;;;7.10;4.20;;;;;;;6.55;60.96;99025.47;10357893;28;20222;-80
2021/12/27 06:06:05;;;;;;;5.17;3.97;;;;;;;6.73;60.57;99017.91;10357561;28;20205;-80
2021/12/27 06:11:07;;;;;;;5.40;4.40;;;;;;;6.54;60.98;99023.84;10362069;28;20217;-81
2021/12/27 06:16:11;;;;;;;5.37;4.53;;;;;;;6.77;59.97;99024.47;10356682;28;20194;-84
2021/12/27 06:21:13;;;;;;;5.90;4.37;;;;;;;6.09;61.63;99026.88;10359669;28;20213;-81
2021/12/27 06:26:16;;;;;;;5.83;4.60;;;;;;;6.73;60.19;99020.69;10342317;28;20206;-82
2021/12/27 06:31:19;;;;;;;5.53;4.67;;;;;;;6.90;60.20;99017.91;10342779;28;20244;-81
2021/12/27 06:36:22;;;;;;;5.50;4.97;;;;;;;6.57;61.49;99031.56;10327456;28;20202;-84
2021/12/27 06:41:25;;;;;;;5.17;4.67;;;;;;;7.05;59.57;99028.56;10337454;28;20194;-80
2021/12/27 06:46:27;;;;;;;6.00;5.30;;;;;;;6.56;61.05;99023.50;10359503;28;20577;-81
2021/12/27 06:51:30;;;;;;;4.90;4.00;;;;;;;6.45;62.39;99023.84;10340914;28;20630;-81
2021/12/27 06:56:33;;;;;;;4.53;4.07;;;;;;;6.30;63.08;99027.09;10326349;28;20198;-81
2021/12/27 07:01:35;;;;;;;4.57;3.80;;;;;;;7.15;60.03;99031.03;10326013;28;20700;-84
2021/12/27 07:06:37;;;;;;;4.30;3.80;;;;;;;7.08;60.04;99029.88;10317548;28;20264;-80
2021/12/27 07:11:41;;;;;;;4.50;4.10;;;;;;;7.25;58.67;99027.06;10316012;28;20230;-80
2021/12/27 07:16:43;;;;;;;5.10;4.60;;;;;;;7.63;58.12;99026.34;10339036;28;20202;-81
2021/12/27 07:21:45;;;;;;;5.37;4.40;;;;;;;7.50;58.23;99017.00;10346724;28;20225;-83
2021/12/27 07:26:48;;;;;;;4.87;4.37;;;;;;;7.30;58.98;99020.50;10313836;28;20206;-82
2021/12/27 07:31:50;;;;;;;4.80;4.03;;;;;;;7.37;58.55;99021.63;10323889;28;20288;-82
2021/12/27 07:36:52;;;;;;;5.20;4.70;;;;;;;7.44;59.13;99019.16;10329253;28;20226;-83
2021/12/27 07:41:55;;;;;;;5.00;4.40;;;;;;;7.64;58.71;99028.78;10323967;28;20261;-86
2021/12/27 07:46:57;;;;;;;4.87;4.30;;;;;;;7.29;59.03;99022.47;10352745;28;20205;-85
2021/12/27 07:51:59;;;;;;;5.90;4.47;;;;;;;7.25;59.06;99018.69;10331113;28;20531;-83
2021/12/27 07:57:03;;;;;;;5.17;4.20;;;;;;;6.31;62.57;99019.53;10319552;28;20206;-82
2021/12/27 08:02:05;;;;;;;5.37;4.70;;;;;;;6.49;61.76;99012.81;10342828;28;20338;-82
2021/12/27 08:07:07;;;;;;;5.93;4.43;;;;;;;7.21;60.27;99012.16;10324058;28;20202;-82
2021/12/27 08:12:12;;;;;;;4.87;4.30;;;;;;;7.06;60.71;99009.84;10305869;28;20279;-83
2021/12/27 08:17:14;;;;;;;7.00;5.23;;;;;;;6.73;62.06;99018.72;10320336;28;20657;-86
2021/12/27 08:22:16;;;;;;;6.93;5.00;;;;;;;7.17;60.57;99012.00;10320871;28;20222;-83
2021/12/27 08:27:25;;;;;;;7.67;5.20;;;;;;;7.55;58.84;99016.81;10305493;28;20610;-82
2021/12/27 08:32:27;;;;;;;7.23;4.90;;;;;;;7.29;60.07;99008.50;10293380;28;20226;-85
2021/12/27 08:37:30;;;;;;;5.33;4.70;;;;;;;7.31;59.39;99009.00;10317709;28;20210;-81
2021/12/27 08:42:32;;;;;;;5.70;5.10;;;;;;;7.19;60.92;98997.69;10304749;28;20194;-82
2021/12/27 08:47:35;;;;;;;5.47;4.60;;;;;;;7.71;59.89;98991.94;10312871;28;20202;-84
2021/12/27 08:52:37;;;;;;;5.00;4.23;;;;;;;7.20;61.09;98999.34;10333331;28;20762;-80
2021/12/27 08:57:40;;;;;;;5.53;4.20;;;;;;;7.91;58.22;98977.19;10318345;28;20202;-79
2021/12/27 09:02:43;;;;;;;5.00;4.50;;;;;;;7.62;58.82;98980.78;10312138;28;20292;-79
2021/12/27 09:07:46;;;;;;;5.30;3.53;;;;;;;7.75;59.59;98992.91;10305036;28;20562;-83
2021/12/27 09:12:48;;;;;;;3.40;3.10;;;;;;;8.10;59.18;98994.34;10342534;28;20253;-84
2021/12/27 09:17:50;;;;;;;4.27;3.43;;;;;;;7.93;58.77;98994.44;10340616;28;20210;-83
2021/12/27 09:22:53;;;;;;;3.00;2.80;;;;;;;7.81;59.98;98997.13;10314386;28;20300;-84
2021/12/27 09:27:56;;;;;;;2.73;2.40;;;;;;;6.97;62.19;99001.50;10294674;28;20210;-83
2021/12/27 09:32:58;;;;;;;3.00;2.70;;;;;;;7.38;61.19;99003.72;10330195;28;20269;-80
2021/12/27 09:38:00;;;;;;;4.70;3.10;;;;;;;7.19;62.68;98997.69;10318147;28;20233;-81
2021/12/27 09:43:04;;;;;;;3.10;2.27;;;;;;;7.80;59.73;98987.09;10317460;28;20190;-82
2021/12/27 09:48:06;;;;;;;2.60;2.10;;;;;;;7.41;61.69;98983.50;10313795;28;20260;-84
2021/12/27 09:53:08;;;;;;;2.63;2.17;;;;;;;7.66;59.83;98980.91;10317670;28;20257;-83
2021/12/27 09:58:21;;;;;;;2.43;2.23;;;;;;;7.12;62.97;98981.41;10331738;28;20248;-82
2021/12/27 10:03:24;;;;;;;2.50;2.07;;;;;;;7.59;61.35;98973.91;10335136;28;20221;-80
2021/12/27 10:08:29;;;;;;;2.97;2.47;;;;;;;7.22;63.34;98963.53;10332584;28;20528;-82
2021/12/27 10:13:32;;;;;;;2.63;2.20;;;;;;;7.32;62.24;98957.56;10344439;28;20276;-84
2021/12/27 10:18:37;;;;;;;2.27;2.07;;;;;;;7.17;63.25;98949.72;10327178;28;20238;-84
2021/12/27 10:23:39;;;;;;;2.20;1.83;;;;;;;7.42;63.17;98942.41;10321117;28;20315;-84
2021/12/27 10:28:41;;;;;;;5.03;2.17;;;;;;;7.09;63.98;98953.34;10313118;28;20292;-83
2021/12/27 10:33:47;;;;;;;2.17;1.97;;;;;;;7.61;62.58;98942.00;10302503;28;20261;-84
2021/12/27 10:38:54;;;;;;;2.10;1.90;;;;;;;8.34;60.31;98939.72;10321847;28;20249;-83
2021/12/27 10:43:57;;;;;;;1.70;1.60;;;;;;;8.08;61.28;98923.94;10326743;28;20583;-80
2021/12/27 10:49:19;;;;;;;2.70;2.00;;;;;;;7.87;62.06;98928.69;10327539;28;20288;-84
2021/12/27 10:54:25;;;;;;;2.07;1.80;;;;;;;8.11;61.99;98925.25;10332481;28;20693;-83
2021/12/27 10:59:28;;;;;;;2.40;1.70;;;;;;;8.19;61.09;98922.38;10311057;28;20268;-84
2021/12/27 11:04:30;;;;;;;2.10;1.90;;;;;;;7.94;61.40;98909.38;10326472;28;20304;-83
2021/12/27 11:09:34;;;;;;;2.70;1.90;;;;;;;8.72;59.04;98909.59;10299838;28;20654;-82
2021/12/27 11:14:36;;;;;;;1.77;1.63;;;;;;;8.67;59.19;98907.00;10326822;28;20296;-83
2021/12/27 11:19:38;;;;;;;2.37;1.80;;;;;;;8.61;59.60;98906.41;10331008;28;20551;-85
2021/12/27 11:24:43;;;;;;;2.77;2.10;;;;;;;8.27;61.97;98903.88;10324452;28;20595;-81
2021/12/27 11:30:09;;;;;;;1.80;1.13;;;;;;;8.65;60.16;98898.16;10327891;28;20712;-83
2021/12/27 11:35:19;;;;;;;1.80;1.63;;;;;;;8.74;59.65;98890.47;10303800;28;20252;-81
2021/12/27 11:40:21;;;;;;;1.40;1.30;;;;;;;9.34;58.24;98880.53;10316146;28;20288;-85
2021/12/27 11:45:37;;;;;;;2.90;1.20;;;;;;;8.79;60.03;98886.66;10317720;28;20221;-81
2021/12/27 11:51:00;;;;;;;1.23;1.13;;;;;;;8.52;60.04;98874.06;10321346;28;21416;-82
2021/12/27 11:56:08;;;;;;;1.77;0.93;;;;;;;8.69;60.54;98873.88;10317631;28;20229;-82
2021/12/27 12:01:19;;;;;;;0.80;0.80;;;;;;;8.58;61.79;98861.47;10317369;28;20931;-81
2021/12/27 12:06:43;;;;;;;0.80;0.80;;;;;;;8.42;62.23;98860.47;10317981;28;20234;-83
2021/12/27 12:11:58;;;;;;;0.80;0.80;;;;;;;8.64;61.60;98852.53;10318160;28;20249;-83
2021/12/27 12:17:04;;;;;;;1.00;0.87;;;;;;;8.68;61.08;98847.03;10322933;28;20240;-83
2021/12/27 12:22:07;;;;;;;1.70;1.03;;;;;;;8.85;59.97;98846.03;10302000;28;20257;-83
2021/12/27 12:27:10;;;;;;;1.20;0.90;;;;;;;9.44;58.47;98838.03;10303785;28;20249;-82
2021/12/27 12:32:15;;;;;;;0.90;0.90;;;;;;;8.93;59.68;98826.31;10320115;28;20594;-85
2021/12/27 12:37:19;;;;;;;0.80;0.80;;;;;;;8.89;60.60;98822.59;10329187;28;20288;-83
2021/12/27 12:42:26;;;;;;;0.87;0.80;;;;;;;9.17;59.77;98819.94;10331248;28;20599;-84
2021/12/27 12:47:38;;;;;;;0.83;0.80;;;;;;;9.28;60.23;98817.50;10326596;28;20249;-84
2021/12/27 12:52:58;;;;;;;1.10;1.10;;;;;;;9.60;57.95;98810.94;10314157;28;20265;-83
2021/12/27 12:58:00;;;;;;;1.20;0.90;;;;;;;9.35;59.32;98812.09;10333053;28;20283;-81
2021/12/27 13:03:07;;;;;;;1.87;1.10;;;;;;;9.39;58.92;98793.41;10320056;28;20646;-83
2021/12/27 13:08:14;;;;;;;1.30;1.20;;;;;;;9.41;59.52;98788.28;10319742;28;20307;-81
2021/12/27 13:13:19;;;;;;;2.40;1.40;;;;;;;9.73;57.85;98803.31;10328141;28;20307;-84
2021/12/27 13:18:25;;;;;;;1.10;1.00;;;;;;;8.91;61.53;98806.28;10311515;28;20623;-83
2021/12/27 13:23:29;;;;;;;1.30;1.20;;;;;;;8.91;61.49;98814.66;10329254;28;20296;-84
2021/12/27 13:28:44;;;;;;;1.57;1.40;;;;;;;8.86;61.25;98816.88;10328441;28;20602;-84
2021/12/27 13:33:55;;;;;;;1.10;1.00;;;;;;;9.42;60.21;98812.34;10328662;28;20261;-84
2021/12/27 13:39:14;;;;;;;2.10;1.33;;;;;;;9.40;59.68;98823.09;10329054;28;20886;-83
2021/12/27 13:44:27;;;;;;;1.57;1.30;;;;;;;9.72;59.10;98810.09;10327170;28;20226;-83
2021/12/27 13:49:29;;;;;;;1.50;1.00;;;;;;;9.65;59.44;98802.28;10321841;28;20299;-83
2021/12/27 13:54:40;;;;;;;1.00;1.00;;;;;;;9.45;60.10;98814.41;10325569;28;20701;-82
2021/12/27 13:59:49;;;;;;;1.30;1.10;;;;;;;9.39;60.56;98810.25;10324165;28;20221;-82
2021/12/27 14:04:59;;;;;;;1.33;0.93;;;;;;;9.16;60.83;98812.72;10324531;28;20695;-84
2021/12/27 14:10:01;;;;;;;0.90;0.80;;;;;;;9.10;62.11;98807.66;10327634;28;20866;-83
2021/12/27 14:15:06;;;;;;;1.43;1.20;;;;;;;9.63;59.82;98806.63;10319292;28;20276;-82
2021/12/27 14:20:11;;;;;;;0.80;0.80;;;;;;;9.19;61.43;98802.78;10321073;28;20650;-83
2021/12/27 14:25:20;;;;;;;1.03;0.93;;;;;;;9.94;59.38;98801.19;10305761;28;20357;-86
2021/12/27 14:30:40;;;;;;;1.57;1.10;;;;;;;9.73;60.80;98798.53;10323449;28;20316;-83
2021/12/27 14:35:44;;;;;;;1.90;0.80;;;;;;;9.16;61.99;98800.69;10329785;28;20785;-85
2021/12/27 14:40:51;;;;;;;2.50;1.13;;;;;;;8.60;64.68;98805.97;10325646;28;20205;-86
2021/12/27 14:45:55;;;;;;;1.23;1.13;;;;;;;9.19;62.92;98797.97;10332482;28;20280;-81
2021/12/27 14:50:57;;;;;;;0.83;0.83;;;;;;;8.68;64.79;98802.25;10305407;28;20657;-80
2021/12/27 14:56:00;;;;;;;1.83;1.27;;;;;;;8.70;63.85;98810.28;10309122;28;20291;-80
2021/12/27 15:01:06;;;;;;;1.47;1.07;;;;;;;8.90;65.20;98813.03;10320526;28;20253;-86
2021/12/27 15:06:10;;;;;;;2.27;1.70;;;;;;;9.05;65.72;98821.94;10332783;28;20201;-85
2021/12/27 15:11:12;;;;;;;2.17;2.03;;;;;;;9.05;66.00;98816.31;10328884;28;20328;-84
2021/12/27 15:16:15;;;;;;;2.83;2.23;;;;;;;8.63;67.61;98810.88;10328067;28;20260;-83
2021/12/27 15:21:17;;;;;;;2.40;2.20;;;;;;;8.21;69.87;98805.34;10321675;28;20343;-81
2021/12/27 15:26:19;;;;;;;3.43;2.40;;;;;;;8.15;69.31;98803.91;10297805;28;20231;-80
2021/12/27 15:31:22;;;;;;;4.53;2.57;;;;;;;8.72;67.97;98803.19;10321660;28;20257;-83
2021/12/27 15:36:24;;;;;;;2.90;2.37;;;;;;;8.26;69.11;98798.72;10326209;28;20327;-83
2021/12/27 15:41:28;;;;;;;5.13;2.43;;;;;;;8.68;67.02;98796.66;10312567;28;20304;-81
2021/12/27 15:46:30;;;;;;;3.43;2.60;;;;;;;9.07;66.10;98797.16;10299464;28;20264;-84
2021/12/27 15:51:32;;;;;;;2.83;2.30;;;;;;;8.78;67.03;98785.00;10320314;28;20281;-82
2021/12/27 15:56:35;;;;;;;4.67;3.07;;;;;;;9.21;65.24;98789.22;10314721;28;20229;-81
2021/12/27 16:01:38;;;;;;;3.63;2.50;;;;;;;9.65;63.19;98791.09;10317404;28;20677;-81
2021/12/27 16:06:41;;;;;;;2.60;2.40;;;;;;;8.80;66.57;98788.25;10327774;28;20245;-81
2021/12/27 16:11:43;;;;;;;3.33;2.53;;;;;;;9.06;65.38;98787.16;10314731;28;20333;-84
2021/12/27 16:16:46;;;;;;;3.33;3.03;;;;;;;9.45;64.48;98791.22;10294728;28;20269;-81
2021/12/27 16:21:48;;;;;;;2.97;2.67;;;;;;;8.90;65.44;98792.63;10308605;28;20304;-88
2021/12/27 16:26:51;;;;;;;3.17;2.67;;;;;;;9.13;65.26;98790.16;10310297;28;20528;-85
2021/12/27 16:31:53;;;;;;;2.87;2.33;;;;;;;8.71;66.86;98790.34;10295336;28;20272;-82
2021/12/27 16:36:57;;;;;;;4.40;2.80;;;;;;;8.40;67.45;98773.28;10312536;28;20229;-82
2021/12/27 16:42:01;;;;;;;2.23;2.03;;;;;;;8.31;67.84;98760.16;10311957;28;20226;-83
2021/12/27 16:47:05;;;;;;;2.40;2.20;;;;;;;8.69;66.73;98764.69;10323619;28;20213;-84
2021/12/27 16:52:08;;;;;;;2.67;2.47;;;;;;;9.10;65.50;98760.03;10315881;28;20245;-84
2021/12/27 16:57:11;;;;;;;2.87;2.60;;;;;;;8.93;65.00;98769.50;10321320;28;20238;-85
2021/12/27 17:02:13;;;;;;;3.50;2.10;;;;;;;8.30;67.49;98766.09;10329833;28;20321;-84
2021/12/27 17:07:16;;;;;;;2.10;1.80;;;;;;;8.12;68.07;98768.25;10326582;28;20287;-84
2021/12/27 17:12:18;;;;;;;3.10;2.43;;;;;;;8.29;66.97;98754.06;10309285;28;20245;-82
2021/12/27 17:17:21;;;;;;;3.07;2.80;;;;;;;8.01;68.08;98755.88;10329730;28;20587;-81
2021/12/27 17:22:23;;;;;;;2.67;2.30;;;;;;;8.42;65.97;98749.34;10323843;28;20315;-84
2021/12/27 17:27:26;;;;;;;3.27;2.47;;;;;;;8.31;66.76;98743.34;10322362;28;20775;-82
2021/12/27 17:32:28;;;;;;;4.17;2.97;;;;;;;8.90;64.96;98748.63;10324009;28;20253;-81
2021/12/27 17:37:30;;;;;;;4.43;2.80;;;;;;;8.72;65.34;98750.00;10332222;28;20245;-81
2021/12/27 17:42:32;;;;;;;3.47;3.17;;;;;;;8.60;65.70;98761.19;10314833;28;20273;-84
2021/12/27 17:47:35;;;;;;;2.67;2.47;;;;;;;8.78;65.04;98767.41;10319113;28;20303;-82
2021/12/27 17:52:37;;;;;;;3.00;2.70;;;;;;;8.62;65.38;98770.88;10313548;28;20265;-82
2021/12/27 17:57:41;;;;;;;2.80;2.30;;;;;;;8.45;65.65;98767.44;10328985;28;20238;-80
2021/12/27 18:02:44;;;;;;;5.20;3.50;;;;;;;9.26;62.89;98772.19;10307656;28;20339;-83
2021/12/27 18:07:47;;;;;;;3.77;3.30;;;;;;;8.51;64.53;98777.25;10304564;28;20257;-82
2021/12/27 18:12:50;;;;;;;3.20;2.87;;;;;;;9.21;62.56;98766.81;10304493;28;20277;-85
2021/12/27 18:17:52;;;;;;;3.87;3.20;;;;;;;9.47;61.99;98772.84;10307456;28;20677;-86
2021/12/27 18:22:54;;;;;;;3.60;3.30;;;;;;;8.94;63.77;98771.13;10329147;28;20312;-82
2021/12/27 18:27:56;;;;;;;4.30;3.87;;;;;;;9.47;61.37;98775.66;10315863;28;20242;-83
2021/12/27 18:32:58;;;;;;;6.93;3.93;;;;;;;8.63;64.34;98772.50;10298612;28;20653;-82
2021/12/27 18:38:01;;;;;;;5.07;4.10;;;;;;;8.60;63.71;98762.00;10283185;28;20297;-81
2021/12/27 18:43:03;;;;;;;5.60;4.57;;;;;;;8.96;62.71;98757.59;10304400;28;20263;-83
2021/12/27 18:48:07;;;;;;;5.27;4.17;;;;;;;9.31;61.80;98767.16;10326672;28;20291;-86
2021/12/27 18:53:09;;;;;;;5.70;4.43;;;;;;;9.14;62.57;98764.59;10328815;28;20320;-84
2021/12/27 18:58:17;;;;;;;4.70;4.20;;;;;;;9.02;62.29;98759.00;10319494;28;20233;-86
2021/12/27 19:03:20;;;;;;;5.73;5.23;;;;;;;9.14;62.42;98759.00;10317656;28;20242;-81
2021/12/27 19:08:23;;;;;;;6.13;4.40;;;;;;;8.99;62.93;98763.31;10304111;28;20316;-85
2021/12/27 19:13:26;;;;;;;5.40;4.47;;;;;;;9.33;61.68;98753.59;10331034;28;20280;-83
2021/12/27 19:18:28;;;;;;;19.20;12.77;;;;;;;9.17;61.48;98757.47;10339787;28;20264;-83
2021/12/27 19:23:31;;;;;;;5.40;4.90;;;;;;;9.50;61.11;98744.13;10321334;28;20258;-83
2021/12/27 19:28:37;;;;;;;11.57;8.50;;;;;;;9.63;61.50;98748.56;10337033;28;20323;-84
2021/12/27 19:33:39;;;;;;;10.70;7.70;;;;;;;9.93;59.56;98756.66;10309467;28;20253;-81
2021/12/27 19:38:42;;;;;;;7.00;5.53;;;;;;;9.79;59.90;98750.63;10312986;28;20608;-82
2021/12/27 19:43:44;;;;;;;5.90;5.30;;;;;;;9.77;60.15;98750.16;10306421;28;20238;-83
2021/12/27 19:48:46;;;;;;;6.37;5.23;;;;;;;9.34;61.46;98748.81;10318241;28;20241;-84
2021/12/27 19:53:48;;;;;;;6.17;5.50;;;;;;;9.45;61.80;98741.53;10319926;28;20860;-83
2021/12/27 19:58:51;;;;;;;5.80;5.07;;;;;;;9.73;60.34;98738.81;10306932;28;20688;-83
2021/12/27 20:03:53;;;;;;;5.77;4.87;;;;;;;10.41;58.55;98733.94;10314703;28;20272;-83
2021/12/27 20:08:55;;;;;;;7.07;5.10;;;;;;;9.47;61.24;98732.78;10291272;28;20325;-82
2021/12/27 20:13:57;;;;;;;6.43;5.07;;;;;;;9.51;61.07;98734.53;10295745;28;20262;-83
2021/12/27 20:19:00;;;;;;;4.97;4.47;;;;;;;9.29;62.00;98735.06;10314841;28;20544;-85
2021/12/27 20:24:02;;;;;;;7.93;5.07;;;;;;;9.84;60.30;98731.53;10305210;28;20312;-82
2021/12/27 20:29:06;;;;;;;5.50;5.00;;;;;;;9.66;60.77;98736.63;10323454;28;20295;-83
2021/12/27 20:34:08;;;;;;;6.47;5.27;;;;;;;10.34;58.15;98730.97;10324572;28;20262;-83
2021/12/27 20:39:10;;;;;;;5.50;4.83;;;;;;;10.03;58.95;98728.91;10294936;28;20245;-82
2021/12/27 20:44:12;;;;;;;5.43;4.87;;;;;;;9.81;60.18;98726.66;10303225;28;20237;-83
2021/12/27 20:49:15;;;;;;;5.93;5.30;;;;;;;9.69;60.41;98716.31;10328000;28;20206;-83
2021/12/27 20:54:17;;;;;;;6.33;4.80;;;;;;;9.60;60.64;98710.00;10330130;28;20265;-82
2021/12/27 20:59:20;;;;;;;5.20;4.63;;;;;;;9.35;61.76;98702.78;10313554;28;20237;-83
2021/12/27 21:04:22;;;;;;;6.97;5.00;;;;;;;10.31;58.85;98689.56;10327248;28;20221;-85
2021/12/27 21:09:25;;;;;;;5.40;4.90;;;;;;;9.82;60.01;98693.81;10315424;28;20562;-82
2021/12/27 21:14:28;;;;;;;5.47;4.83;;;;;;;9.26;62.64;98676.91;10323636;28;20538;-83
2021/12/27 21:19:30;;;;;;;4.40;4.00;;;;;;;9.34;62.28;98685.16;10330960;28;20206;-83
2021/12/27 21:24:32;;;;;;;4.13;3.73;;;;;;;9.82;60.71;98685.41;10310307;28;20222;-83
2021/12/27 21:29:35;;;;;;;4.83;4.37;;;;;;;9.31;63.00;98683.09;10345431;28;20202;-83
2021/12/27 21:34:39;;;;;;;5.67;4.73;;;;;;;9.66;62.51;98693.75;10330079;28;20404;-84
2021/12/27 21:39:41;;;;;;;4.20;3.80;;;;;;;9.83;62.29;98684.22;10324857;28;20616;-83
2021/12/27 21:44:45;;;;;;;4.77;3.87;;;;;;;9.25;64.62;98680.88;10323536;28;20202;-82
2021/12/27 21:49:48;;;;;;;4.37;3.80;;;;;;;9.12;64.82;98677.28;10338488;28;20209;-83
2021/12/27 21:54:50;;;;;;;4.27;3.60;;;;;;;9.77;63.81;98675.25;10324904;28;20276;-83
2021/12/27 21:59:56;;;;;;;4.37;3.60;;;;;;;9.34;65.32;98678.75;10335553;28;20206;-83
2021/12/27 22:04:58;;;;;;;3.40;3.10;;;;;;;9.75;63.27;98683.19;10331563;28;20249;-83
2021/12/27 22:10:04;;;;;;;3.43;3.13;;;;;;;9.55;64.14;98684.22;10326559;28;20280;-81
2021/12/27 22:15:09;;;;;;;3.17;2.87;;;;;;;9.83;63.52;98673.00;10344214;28;20214;-81
2021/12/27 22:20:13;;;;;;;3.90;3.50;;;;;;;9.56;63.97;98675.44;10336355;28;20502;-81
2021/12/27 22:25:16;;;;;;;3.60;3.13;;;;;;;9.44;66.38;98672.66;10329526;28;20225;-82
2021/12/27 22:30:20;;;;;;;3.17;2.87;;;;;;;9.45;66.45;98671.47;10321443;28;20609;-84
2021/12/27 22:35:23;;;;;;;3.90;3.00;;;;;;;9.03;68.48;98662.59;10321254;28;20257;-81
2021/12/27 22:40:27;;;;;;;2.60;2.40;;;;;;;9.39;67.36;98650.47;10335662;28;20206;-82
2021/12/27 22:45:30;;;;;;;3.27;2.73;;;;;;;9.10;68.08;98645.19;10337401;28;20539;-84
2021/12/27 22:50:33;;;;;;;2.43;2.23;;;;;;;9.20;67.77;98634.28;10345711;28;20210;-81
2021/12/27 22:55:35;;;;;;;2.27;2.00;;;;;;;9.26;67.95;98640.47;10316271;28;20226;-80
2021/12/27 23:00:41;;;;;;;1.87;1.77;;;;;;;9.18;68.09;98630.22;10333769;28;20253;-81
2021/12/27 23:05:43;;;;;;;1.97;1.77;;;;;;;9.59;66.08;98623.44;10331111;28;20499;-81
2021/12/27 23:10:47;;;;;;;1.50;1.40;;;;;;;9.53;66.01;98622.88;10325792;28;20260;-83
2021/12/27 23:15:49;;;;;;;2.00;1.80;;;;;;;9.83;64.15;98625.31;10326285;28;20229;-82
2021/12/27 23:20:52;;;;;;;2.20;1.77;;;;;;;9.57;65.54;98621.00;10331855;28;20211;-81
2021/12/27 23:25:54;;;;;;;1.67;1.37;;;;;;;9.61;65.68;98618.28;10323111;28;20234;-83
2021/12/27 23:30:57;;;;;;;1.47;1.37;;;;;;;9.19;67.12;98623.47;10330525;28;20210;-81
2021/12/27 23:36:01;;;;;;;2.07;1.77;;;;;;;9.55;65.27;98614.94;10332828;28;20507;-80
2021/12/27 23:41:06;;;;;;;2.20;1.50;;;;;;;10.03;64.15;98613.84;10326714;28;20285;-81
2021/12/27 23:46:08;;;;;;;2.10;1.70;;;;;;;9.70;65.03;98614.19;10310892;28;20261;-85
2021/12/27 23:51:11;;;;;;;2.77;1.83;;;;;;;9.99;64.61;98610.13;10331860;28;20209;-82